createdAt,value
2018-12-31T14:49:16.075Z,23.00
2018-12-31T14:51:44.560Z,20.83
2018-12-31T14:54:13.028Z,19.57
2018-12-31T14:56:41.447Z,20.13
2018-12-31T14:59:09.849Z,18.63
2018-12-31T15:01:38.269Z,20.83
2018-12-31T15:04:06.671Z,51.17
2018-12-31T15:06:35.139Z,20.97
2018-12-31T15:09:04.837Z,20.73
2018-12-31T15:11:33.251Z,19.80
2018-12-31T15:14:01.668Z,21.57
2018-12-31T15:16:30.072Z,21.27
2018-12-31T15:18:58.461Z,25.43
2018-12-31T15:21:26.913Z,26.77
2018-12-31T15:23:55.319Z,32.27
2018-12-31T15:26:24.129Z,27.23
2018-12-31T15:28:52.566Z,28.70
2018-12-31T15:31:20.975Z,28.63
2018-12-31T15:33:49.429Z,29.03
2018-12-31T15:36:17.843Z,29.70
2018-12-31T15:38:46.318Z,29.23
2018-12-31T15:41:14.736Z,28.67
2018-12-31T15:43:43.143Z,29.03
2018-12-31T15:46:11.551Z,29.13
2018-12-31T15:48:39.981Z,30.07
2018-12-31T15:51:09.117Z,30.87
2018-12-31T15:53:39.260Z,30.50
2018-12-31T15:56:07.664Z,29.60
2018-12-31T15:58:36.079Z,30.67
2018-12-31T16:01:04.473Z,30.70
2018-12-31T16:03:32.884Z,29.10
2018-12-31T16:06:01.290Z,29.63
2018-12-31T16:08:29.710Z,30.00
2018-12-31T16:10:58.138Z,30.97
2018-12-31T16:13:26.548Z,32.20
2018-12-31T16:15:54.952Z,31.03
2018-12-31T16:18:23.762Z,33.47
2018-12-31T16:20:52.153Z,33.50
2018-12-31T16:23:20.569Z,34.57
2018-12-31T16:25:48.996Z,33.30
2018-12-31T16:28:17.402Z,33.33
2018-12-31T16:30:46.295Z,33.10
2018-12-31T16:33:14.787Z,32.57
2018-12-31T16:35:43.232Z,32.90
2018-12-31T16:38:11.672Z,33.87
2018-12-31T16:40:40.219Z,32.63
2018-12-31T16:43:08.660Z,33.00
2018-12-31T16:45:37.088Z,34.80
2018-12-31T16:48:05.644Z,36.00
2018-12-31T16:50:34.048Z,34.77
2018-12-31T16:53:02.479Z,35.23
2018-12-31T16:55:30.906Z,42.03
2018-12-31T16:57:59.321Z,39.37
2018-12-31T17:00:27.724Z,35.97
2018-12-31T17:02:56.156Z,46.60
2018-12-31T17:05:24.559Z,37.90
2018-12-31T17:07:53.053Z,35.80
2018-12-31T17:10:21.467Z,37.20
2018-12-31T17:12:49.921Z,38.43
2018-12-31T17:15:18.317Z,39.13
2018-12-31T17:17:46.743Z,39.07
2018-12-31T17:20:15.156Z,37.00
2018-12-31T17:22:43.567Z,35.70
2018-12-31T17:25:12.085Z,35.60
2018-12-31T17:27:40.507Z,34.77
2018-12-31T17:30:09.015Z,34.40
2018-12-31T17:32:37.465Z,34.57
2018-12-31T17:35:06.003Z,32.00
2018-12-31T17:37:34.663Z,31.90
2018-12-31T17:40:03.244Z,33.83
2018-12-31T17:42:31.632Z,35.77
2018-12-31T17:45:00.020Z,34.87
2018-12-31T17:47:28.423Z,38.43
2018-12-31T17:49:57.297Z,41.37
2018-12-31T17:52:25.679Z,34.00
2018-12-31T17:54:54.096Z,31.87
2018-12-31T17:57:22.491Z,35.43
2018-12-31T17:59:50.880Z,31.00
2018-12-31T18:02:19.275Z,30.20
2018-12-31T18:04:47.667Z,30.20
2018-12-31T18:07:16.056Z,30.30
2018-12-31T18:09:44.461Z,30.17
2018-12-31T18:12:12.849Z,29.03
2018-12-31T18:14:41.232Z,28.43
2018-12-31T18:17:10.019Z,31.63
2018-12-31T18:19:38.422Z,30.43
2018-12-31T18:22:06.814Z,34.97
2018-12-31T18:24:35.208Z,30.43
2018-12-31T18:27:03.675Z,29.63
2018-12-31T18:29:32.460Z,36.63
2018-12-31T18:32:00.843Z,41.77
2018-12-31T18:34:29.248Z,30.57
2018-12-31T18:36:57.652Z,29.77
2018-12-31T18:39:26.072Z,31.00
2018-12-31T18:41:54.572Z,32.33
2018-12-31T18:44:22.975Z,32.97
2018-12-31T18:46:51.370Z,34.57
2018-12-31T18:49:19.789Z,34.07
2018-12-31T18:51:49.083Z,32.07
2018-12-31T18:54:17.628Z,34.67
2018-12-31T18:56:46.066Z,36.10
2018-12-31T18:59:14.531Z,39.93
2018-12-31T19:01:42.938Z,36.83
2018-12-31T19:04:11.370Z,37.13
2018-12-31T19:06:39.886Z,33.43
2018-12-31T19:09:08.776Z,34.43
2018-12-31T19:11:37.212Z,32.93
2018-12-31T19:14:05.619Z,34.27
2018-12-31T19:16:34.021Z,33.60
2018-12-31T19:19:02.542Z,34.17
2018-12-31T19:21:31.016Z,34.83
2018-12-31T19:23:59.442Z,34.67
2018-12-31T19:26:27.863Z,33.50
2018-12-31T19:28:56.282Z,32.63
2018-12-31T19:31:24.682Z,33.60
2018-12-31T19:33:53.298Z,31.07
2018-12-31T19:36:21.699Z,29.20
2018-12-31T19:38:50.112Z,30.33
2018-12-31T19:41:19.111Z,31.70
2018-12-31T19:43:47.506Z,29.90
2018-12-31T19:46:15.906Z,30.33
2018-12-31T19:48:44.803Z,30.17
2018-12-31T19:51:13.273Z,30.17
2018-12-31T19:53:41.941Z,27.10
2018-12-31T19:56:10.379Z,26.17
2018-12-31T19:58:38.819Z,26.50
2018-12-31T20:01:07.235Z,25.80
2018-12-31T20:03:35.615Z,25.23
2018-12-31T20:06:06.979Z,23.03
2018-12-31T20:08:35.482Z,23.07
2018-12-31T20:11:03.966Z,22.73
2018-12-31T20:13:33.050Z,21.60
2018-12-31T20:16:01.526Z,20.97
2018-12-31T20:18:29.952Z,22.37
2018-12-31T20:20:58.355Z,23.00
2018-12-31T20:23:26.908Z,21.30
2018-12-31T20:25:55.391Z,20.93
2018-12-31T20:28:24.119Z,20.87
2018-12-31T20:30:52.594Z,20.33
2018-12-31T20:33:21.004Z,20.57
2018-12-31T20:35:49.414Z,20.50
2018-12-31T20:38:17.838Z,20.67
2018-12-31T20:40:47.624Z,21.10
2018-12-31T20:43:16.351Z,21.37
2018-12-31T20:45:44.756Z,20.37
2018-12-31T20:48:13.155Z,21.77
2018-12-31T20:50:41.570Z,20.77
2018-12-31T20:53:09.985Z,19.40
2018-12-31T20:55:38.430Z,20.20
2018-12-31T20:58:06.831Z,20.80
2018-12-31T21:00:35.238Z,20.17
2018-12-31T21:03:03.812Z,20.03
2018-12-31T21:05:32.258Z,20.03
2018-12-31T21:08:00.723Z,20.77
2018-12-31T21:10:29.516Z,20.77
2018-12-31T21:12:57.923Z,21.47
2018-12-31T21:15:26.859Z,25.70
2018-12-31T21:17:55.248Z,24.10
2018-12-31T21:20:23.631Z,24.50
2018-12-31T21:22:52.615Z,26.80
2018-12-31T21:25:23.664Z,24.03
2018-12-31T21:27:52.086Z,23.97
2018-12-31T21:30:22.135Z,24.33
2018-12-31T21:32:50.575Z,23.70
2018-12-31T21:35:18.976Z,24.77
2018-12-31T21:37:47.402Z,23.93
2018-12-31T21:40:15.899Z,26.63
2018-12-31T21:42:44.317Z,26.10
2018-12-31T21:45:12.711Z,27.30
2018-12-31T21:47:41.110Z,26.70
2018-12-31T21:50:10.008Z,28.10
2018-12-31T21:52:38.526Z,27.57
2018-12-31T21:55:07.011Z,29.77
2018-12-31T21:57:35.500Z,30.10
2018-12-31T22:00:05.940Z,28.10
2018-12-31T22:02:34.353Z,29.40
2018-12-31T22:05:02.794Z,27.70
2018-12-31T22:07:34.084Z,29.87
2018-12-31T22:10:02.558Z,26.03
2018-12-31T22:12:32.306Z,25.77
2018-12-31T22:15:02.238Z,25.53
2018-12-31T22:17:30.636Z,24.80
2018-12-31T22:19:59.064Z,24.20
2018-12-31T22:22:27.504Z,24.17
2018-12-31T22:24:55.904Z,24.00
2018-12-31T22:27:24.342Z,24.97
2018-12-31T22:29:53.140Z,24.70
2018-12-31T22:32:21.547Z,24.33
2018-12-31T22:34:50.008Z,25.43
2018-12-31T22:37:18.411Z,25.17
2018-12-31T22:39:47.042Z,26.17
2018-12-31T22:42:15.838Z,25.83
2018-12-31T22:44:44.248Z,26.07
2018-12-31T22:47:12.719Z,26.70
2018-12-31T22:49:41.147Z,27.40
2018-12-31T22:52:09.571Z,28.53
2018-12-31T22:54:37.973Z,27.77
2018-12-31T22:57:06.367Z,31.87
2018-12-31T22:59:34.760Z,35.03
2018-12-31T23:02:03.318Z,46.83
2018-12-31T23:04:32.389Z,41.23
2018-12-31T23:07:01.537Z,64.80
2018-12-31T23:09:29.938Z,142.10
2018-12-31T23:11:58.380Z,141.13
2018-12-31T23:14:26.792Z,174.43
2018-12-31T23:16:56.316Z,155.03
2018-12-31T23:19:24.779Z,194.77
2018-12-31T23:21:53.256Z,211.57
2018-12-31T23:24:21.664Z,216.50
2018-12-31T23:26:51.632Z,215.43
2018-12-31T23:29:20.042Z,219.70
2018-12-31T23:31:48.436Z,200.43
2018-12-31T23:34:16.880Z,216.47
2018-12-31T23:36:45.281Z,198.67
2018-12-31T23:39:13.694Z,236.20
2018-12-31T23:41:42.114Z,178.50
2018-12-31T23:44:10.589Z,210.37
2018-12-31T23:46:38.988Z,172.13
2018-12-31T23:49:07.393Z,179.03
2018-12-31T23:51:35.795Z,162.13
2018-12-31T23:54:04.191Z,145.37
2018-12-31T23:56:32.583Z,173.77
2018-12-31T23:59:00.996Z,148.70
